createdAt,value
2017-10-08T00:01:44.138Z,11.50
2017-10-08T00:04:15.455Z,11.50
2017-10-08T00:06:46.100Z,11.50
2017-10-08T00:09:17.668Z,11.50
2017-10-08T00:11:49.410Z,11.60
2017-10-08T00:14:20.704Z,11.60
2017-10-08T00:16:51.386Z,11.60
2017-10-08T00:19:22.772Z,11.60
2017-10-08T00:21:53.253Z,11.70
2017-10-08T00:24:23.799Z,11.70
2017-10-08T00:26:54.410Z,11.70
2017-10-08T00:29:25.240Z,11.70
2017-10-08T00:31:56.594Z,11.70
2017-10-08T00:34:27.488Z,11.70
2017-10-08T00:36:58.253Z,11.70
2017-10-08T00:39:28.666Z,11.70
2017-10-08T00:42:00.193Z,11.80
2017-10-08T00:44:31.739Z,11.70
2017-10-08T00:47:02.720Z,11.80
2017-10-08T00:49:33.531Z,11.80
2017-10-08T00:52:03.998Z,11.80
2017-10-08T00:54:35.025Z,11.80
2017-10-08T00:57:05.635Z,11.80
2017-10-08T00:59:35.970Z,11.80
2017-10-08T01:02:06.838Z,11.90
2017-10-08T01:04:37.743Z,11.80
2017-10-08T01:07:08.550Z,11.90
2017-10-08T01:09:39.162Z,11.90
2017-10-08T01:12:09.777Z,11.90
2017-10-08T01:14:41.273Z,11.90
2017-10-08T01:17:11.861Z,11.90
2017-10-08T01:19:43.488Z,11.90
2017-10-08T01:22:14.161Z,11.90
2017-10-08T01:24:45.108Z,12.00
2017-10-08T01:27:16.308Z,12.00
2017-10-08T01:29:46.838Z,12.00
2017-10-08T01:32:18.667Z,12.00
2017-10-08T01:34:49.414Z,12.00
2017-10-08T01:37:20.123Z,12.00
2017-10-08T01:39:50.661Z,12.00
2017-10-08T01:42:21.154Z,12.00
2017-10-08T01:44:51.968Z,12.00
2017-10-08T01:47:22.768Z,12.00
2017-10-08T01:49:53.032Z,12.00
2017-10-08T01:52:23.656Z,12.00
2017-10-08T01:54:54.307Z,12.00
2017-10-08T01:57:25.200Z,12.00
2017-10-08T01:59:58.213Z,12.10
2017-10-08T02:02:29.036Z,12.10
2017-10-08T02:04:59.862Z,12.10
2017-10-08T02:07:30.049Z,12.10
2017-10-08T02:10:01.257Z,12.10
2017-10-08T02:12:31.933Z,12.10
2017-10-08T02:15:02.457Z,12.00
2017-10-08T02:17:33.168Z,12.00
2017-10-08T02:20:04.627Z,12.00
2017-10-08T02:22:36.052Z,12.00
2017-10-08T02:25:06.905Z,12.00
2017-10-08T02:27:38.065Z,12.00
2017-10-08T02:30:08.979Z,12.00
2017-10-08T02:32:39.525Z,12.00
2017-10-08T02:35:11.372Z,12.00
2017-10-08T02:37:42.064Z,12.00
2017-10-08T02:40:12.358Z,12.00
2017-10-08T02:42:42.459Z,12.00
2017-10-08T02:45:13.859Z,12.00
2017-10-08T02:47:44.358Z,12.00
2017-10-08T02:50:15.046Z,12.00
2017-10-08T02:52:45.488Z,12.10
2017-10-08T02:55:16.165Z,12.10
2017-10-08T02:57:46.835Z,12.10
2017-10-08T03:00:17.453Z,12.10
2017-10-08T03:02:48.630Z,12.10
2017-10-08T03:05:20.283Z,12.10
2017-10-08T03:07:50.723Z,12.10
2017-10-08T03:10:22.208Z,12.00
2017-10-08T03:12:52.729Z,12.00
2017-10-08T03:15:23.489Z,12.10
2017-10-08T03:17:53.755Z,12.00
2017-10-08T03:20:25.245Z,12.10
2017-10-08T03:22:55.965Z,12.00
2017-10-08T03:25:26.353Z,12.10
2017-10-08T03:27:57.719Z,12.10
2017-10-08T03:30:28.312Z,12.10
2017-10-08T03:32:58.967Z,12.10
2017-10-08T03:35:30.403Z,12.10
2017-10-08T03:38:02.778Z,12.20
2017-10-08T03:40:33.754Z,12.10
2017-10-08T03:43:04.271Z,12.20
2017-10-08T03:45:35.754Z,12.20
2017-10-08T03:48:05.928Z,12.20
2017-10-08T03:50:37.522Z,12.20
2017-10-08T03:53:07.925Z,12.20
2017-10-08T03:55:38.176Z,12.20
2017-10-08T03:58:08.587Z,12.20
2017-10-08T04:00:39.204Z,12.20
2017-10-08T04:03:09.525Z,12.20
2017-10-08T04:05:40.899Z,12.20
2017-10-08T04:08:11.306Z,12.20
2017-10-08T04:10:42.647Z,12.20
2017-10-08T04:13:13.805Z,12.20
2017-10-08T04:15:44.862Z,12.20
2017-10-08T04:18:15.099Z,12.20
2017-10-08T04:20:45.477Z,12.20
2017-10-08T04:23:16.274Z,12.20
2017-10-08T04:25:46.892Z,12.20
2017-10-08T04:28:17.143Z,12.20
2017-10-08T04:30:47.795Z,12.20
2017-10-08T04:33:19.125Z,12.20
2017-10-08T04:35:49.814Z,12.20
2017-10-08T04:38:20.623Z,12.20
2017-10-08T04:40:51.637Z,12.20
2017-10-08T04:43:23.285Z,12.30
2017-10-08T04:45:53.984Z,12.30
2017-10-08T04:48:24.547Z,12.30
2017-10-08T04:50:55.332Z,12.30
2017-10-08T04:53:26.014Z,12.30
2017-10-08T04:55:56.750Z,12.30
2017-10-08T04:58:27.210Z,12.30
2017-10-08T05:00:57.769Z,12.30
2017-10-08T05:03:28.392Z,12.30
2017-10-08T05:05:59.008Z,12.30
2017-10-08T05:08:29.951Z,12.30
2017-10-08T05:11:00.331Z,12.30
2017-10-08T05:13:30.815Z,12.20
2017-10-08T05:16:00.981Z,12.30
2017-10-08T05:18:32.624Z,12.30
2017-10-08T05:21:03.047Z,12.30
2017-10-08T05:23:33.740Z,12.30
2017-10-08T05:26:04.424Z,12.20
2017-10-08T05:28:35.881Z,12.10
2017-10-08T05:31:07.458Z,12.10
2017-10-08T05:33:38.543Z,12.10
2017-10-08T05:36:09.181Z,12.10
2017-10-08T05:38:40.215Z,12.10
2017-10-08T05:41:11.044Z,12.10
2017-10-08T05:43:41.696Z,12.10
2017-10-08T05:46:12.769Z,12.10
2017-10-08T05:48:44.172Z,12.00
2017-10-08T05:51:14.839Z,12.00
2017-10-08T05:53:46.061Z,12.10
2017-10-08T05:56:16.342Z,12.00
2017-10-08T05:58:46.953Z,12.10
2017-10-08T06:01:18.620Z,12.20
2017-10-08T06:03:49.224Z,12.10
2017-10-08T06:06:20.502Z,12.20
2017-10-08T06:08:50.909Z,12.10
2017-10-08T06:11:21.637Z,12.20
2017-10-08T06:13:52.025Z,12.30
2017-10-08T06:16:22.692Z,12.30
2017-10-08T06:18:53.223Z,12.30
2017-10-08T06:21:25.129Z,12.30
2017-10-08T06:23:56.081Z,12.20
2017-10-08T06:26:26.806Z,12.30
2017-10-08T06:28:57.348Z,12.30
2017-10-08T06:31:28.309Z,12.30
2017-10-08T06:34:00.512Z,12.30
2017-10-08T06:36:31.640Z,12.20
2017-10-08T06:39:03.224Z,12.30
2017-10-08T06:41:33.904Z,12.20
2017-10-08T06:44:05.291Z,12.30
2017-10-08T06:46:36.098Z,12.30
2017-10-08T06:49:06.580Z,12.40
2017-10-08T06:51:36.849Z,12.30
2017-10-08T06:54:08.326Z,12.40
2017-10-08T06:56:39.273Z,12.40
2017-10-08T06:59:09.866Z,12.40
2017-10-08T07:01:41.308Z,12.50
2017-10-08T07:04:11.984Z,12.50
2017-10-08T07:06:43.208Z,12.50
2017-10-08T07:09:14.827Z,12.80
2017-10-08T07:11:45.644Z,12.70
2017-10-08T07:14:16.671Z,12.80
2017-10-08T07:16:47.503Z,12.80
2017-10-08T07:19:18.348Z,12.80
2017-10-08T07:21:48.803Z,12.90
2017-10-08T07:24:19.476Z,13.00
2017-10-08T07:26:50.081Z,13.20
2017-10-08T07:29:21.409Z,13.30
2017-10-08T07:31:51.750Z,13.30
2017-10-08T07:34:22.523Z,13.30
2017-10-08T07:36:54.209Z,13.20
2017-10-08T07:39:24.909Z,13.20
2017-10-08T07:41:56.490Z,13.20
2017-10-08T07:44:27.737Z,13.20
2017-10-08T07:46:58.847Z,13.30
2017-10-08T07:49:29.675Z,13.30
2017-10-08T07:52:01.114Z,13.20
2017-10-08T07:54:32.800Z,13.20
2017-10-08T07:57:04.751Z,13.20
2017-10-08T07:59:35.905Z,13.40
2017-10-08T08:02:07.996Z,13.70
2017-10-08T08:04:39.635Z,13.70
2017-10-08T08:07:10.260Z,13.90
2017-10-08T08:09:41.036Z,13.90
2017-10-08T08:12:15.079Z,13.80
2017-10-08T08:14:45.338Z,13.90
2017-10-08T08:17:16.139Z,14.50
2017-10-08T08:19:47.073Z,15.00
2017-10-08T08:22:18.230Z,14.80
2017-10-08T08:24:49.663Z,14.20
2017-10-08T08:27:20.393Z,14.20
2017-10-08T08:29:52.057Z,14.00
2017-10-08T08:32:23.409Z,14.00
2017-10-08T08:34:54.279Z,14.00
2017-10-08T08:37:26.154Z,14.40
2017-10-08T08:39:57.041Z,14.80
2017-10-08T08:42:28.548Z,14.80
2017-10-08T08:45:00.231Z,15.00
2017-10-08T08:47:31.884Z,15.00
2017-10-08T08:50:02.884Z,14.90
2017-10-08T08:52:34.017Z,14.60
2017-10-08T08:55:05.198Z,14.40
2017-10-08T08:57:36.659Z,14.00
2017-10-08T09:00:08.712Z,14.00
2017-10-08T09:02:39.864Z,14.00
2017-10-08T09:05:11.368Z,14.10
2017-10-08T09:07:43.023Z,14.30
2017-10-08T09:10:14.408Z,14.50
2017-10-08T09:12:46.017Z,14.70
2017-10-08T09:15:17.512Z,14.80
2017-10-08T09:17:48.447Z,15.10
2017-10-08T09:20:20.741Z,16.10
2017-10-08T09:22:52.164Z,16.10
2017-10-08T09:25:24.109Z,15.80
2017-10-08T09:27:54.897Z,15.80
2017-10-08T09:30:26.622Z,15.70
2017-10-08T09:32:58.916Z,16.00
2017-10-08T09:35:30.248Z,16.00
2017-10-08T09:38:01.896Z,16.10
2017-10-08T09:40:33.340Z,15.60
2017-10-08T12:15:51.077Z,16.20
2017-10-08T12:18:23.284Z,16.70
2017-10-08T12:20:54.537Z,16.70
2017-10-08T12:23:25.570Z,16.80
2017-10-08T12:25:57.392Z,17.40
2017-10-08T12:28:29.399Z,18.30
2017-10-08T12:31:00.559Z,18.30
2017-10-08T12:33:31.986Z,17.60
2017-10-08T12:36:02.592Z,17.00
2017-10-08T12:38:33.937Z,16.40
2017-10-08T12:41:06.583Z,15.60
2017-10-08T12:43:37.676Z,15.60
2017-10-08T12:46:08.716Z,15.40
2017-10-08T12:48:39.549Z,15.20
2017-10-08T12:51:10.821Z,15.10
2017-10-08T12:53:42.231Z,14.90
2017-10-08T12:56:12.991Z,14.70
2017-10-08T12:58:44.601Z,14.70
2017-10-08T13:01:15.846Z,14.80
2017-10-08T13:03:47.633Z,14.70
2017-10-08T13:06:18.599Z,14.60
2017-10-08T13:08:49.968Z,14.60
2017-10-08T13:11:21.355Z,14.40
2017-10-08T13:13:52.216Z,14.50
2017-10-08T13:16:23.672Z,14.60
2017-10-08T13:18:54.517Z,14.50
2017-10-08T13:21:25.982Z,14.50
2017-10-08T13:23:57.382Z,14.40
2017-10-08T13:26:29.115Z,14.50
2017-10-08T13:29:00.145Z,14.70
2017-10-08T13:31:32.008Z,15.10
2017-10-08T13:34:03.508Z,15.10
2017-10-08T13:36:34.835Z,15.40
2017-10-08T13:39:05.926Z,15.50
2017-10-08T13:41:37.135Z,15.50
2017-10-08T13:44:09.029Z,15.40
2017-10-08T13:46:40.556Z,15.30
2017-10-08T13:49:11.593Z,15.30
2017-10-08T13:51:43.017Z,15.30
2017-10-08T13:54:14.834Z,15.40
2017-10-08T13:56:46.305Z,15.30
2017-10-08T13:59:17.830Z,15.30
2017-10-08T14:01:50.347Z,15.00
2017-10-08T14:04:21.800Z,14.90
2017-10-08T14:06:53.853Z,15.10
2017-10-08T14:09:25.529Z,15.00
2017-10-08T14:11:56.509Z,15.00
2017-10-08T14:14:27.258Z,15.00
2017-10-08T14:16:58.205Z,15.00
2017-10-08T14:19:30.099Z,15.00
2017-10-08T14:22:01.202Z,14.90
2017-10-08T14:24:32.506Z,14.80
2017-10-08T14:27:03.925Z,14.70
2017-10-08T14:29:35.719Z,14.70
2017-10-08T14:32:06.630Z,14.60
2017-10-08T14:34:38.969Z,14.50
2017-10-08T14:37:10.362Z,14.50
2017-10-08T14:39:41.859Z,14.50
2017-10-08T14:42:13.936Z,14.50
2017-10-08T14:44:45.455Z,14.50
2017-10-08T14:47:16.407Z,14.40
2017-10-08T14:49:48.254Z,14.40
2017-10-08T14:52:20.794Z,14.30
2017-10-08T14:54:51.867Z,14.30
2017-10-08T14:57:23.644Z,14.20
2017-10-08T14:59:54.954Z,14.10
2017-10-08T15:02:26.586Z,14.10
2017-10-08T15:04:57.959Z,13.80
2017-10-08T15:07:29.042Z,13.70
2017-10-08T15:09:59.929Z,13.60
2017-10-08T15:12:31.145Z,13.50
2017-10-08T15:15:02.336Z,13.50
2017-10-08T15:17:33.801Z,13.50
2017-10-08T15:20:05.698Z,13.50
2017-10-08T15:22:38.269Z,13.40
2017-10-08T15:25:10.299Z,13.40
2017-10-08T15:27:41.625Z,13.40
2017-10-08T15:30:12.673Z,13.40
2017-10-08T15:32:43.397Z,13.40
2017-10-08T15:35:14.241Z,13.40
2017-10-08T15:37:45.509Z,13.40
2017-10-08T15:40:16.625Z,13.40
2017-10-08T15:42:48.040Z,13.40
2017-10-08T15:45:19.328Z,13.50
2017-10-08T15:47:49.841Z,13.50
2017-10-08T15:50:21.647Z,13.50
2017-10-08T15:52:52.434Z,13.50
2017-10-08T15:55:24.584Z,13.60
2017-10-08T15:57:55.554Z,13.60
2017-10-08T16:00:28.568Z,13.60
2017-10-08T16:03:00.419Z,13.60
2017-10-08T16:05:31.961Z,13.60
2017-10-08T16:08:03.217Z,13.60
2017-10-08T16:10:33.974Z,13.50
2017-10-08T16:13:04.469Z,13.50
2017-10-08T16:15:35.342Z,13.40
2017-10-08T16:18:06.654Z,13.40
2017-10-08T16:20:38.728Z,13.30
2017-10-08T16:23:09.015Z,13.30
2017-10-08T16:25:39.376Z,13.20
2017-10-08T16:28:10.795Z,13.20
2017-10-08T16:30:42.280Z,13.20
2017-10-08T16:33:14.110Z,13.10
2017-10-08T16:35:45.580Z,13.00
2017-10-08T16:38:17.547Z,13.10
2017-10-08T16:40:48.082Z,13.00
2017-10-08T16:43:20.160Z,13.00
2017-10-08T16:45:51.963Z,13.10
2017-10-08T16:48:22.998Z,13.00
2017-10-08T16:50:54.078Z,13.00
2017-10-08T16:53:24.579Z,13.00
2017-10-08T16:55:55.940Z,13.00
2017-10-08T16:58:27.033Z,12.90
2017-10-08T17:00:58.061Z,12.90
2017-10-08T17:03:28.953Z,12.90
2017-10-08T17:05:59.770Z,12.90
2017-10-08T17:08:31.016Z,12.90
2017-10-08T17:11:01.896Z,12.90
2017-10-08T17:13:32.657Z,12.90
2017-10-08T17:16:04.403Z,12.90
2017-10-08T17:18:35.249Z,12.90
2017-10-08T17:21:06.377Z,12.90
2017-10-08T17:23:36.908Z,12.90
2017-10-08T17:26:08.180Z,12.90
2017-10-08T17:28:39.158Z,12.90
2017-10-08T17:31:10.407Z,12.90
2017-10-08T17:33:40.726Z,12.90
2017-10-08T17:36:11.067Z,12.90
2017-10-08T17:38:41.726Z,12.90
2017-10-08T17:41:12.175Z,12.90
2017-10-08T17:43:44.527Z,12.90
2017-10-08T17:46:15.261Z,12.90
2017-10-08T17:48:46.291Z,12.80
2017-10-08T17:51:17.796Z,12.80
2017-10-08T17:53:48.959Z,12.80
2017-10-08T17:56:20.289Z,12.80
2017-10-08T17:58:51.095Z,12.80
2017-10-08T18:01:21.929Z,12.70
2017-10-08T18:03:53.268Z,12.70
2017-10-08T18:06:23.516Z,12.70
2017-10-08T18:08:54.191Z,12.70
2017-10-08T18:11:26.080Z,12.70
2017-10-08T18:13:58.375Z,12.80
2017-10-08T18:16:30.176Z,12.80
2017-10-08T18:19:01.740Z,12.70
2017-10-08T18:21:32.966Z,12.80
2017-10-08T18:24:03.990Z,12.70
2017-10-08T18:26:34.940Z,12.70
2017-10-08T18:29:06.574Z,12.70
2017-10-08T18:31:37.829Z,12.60
2017-10-08T18:34:09.046Z,12.60
2017-10-08T18:36:40.806Z,12.50
2017-10-08T18:39:12.258Z,12.50
2017-10-08T18:41:43.925Z,12.40
2017-10-08T18:44:16.083Z,12.30
2017-10-08T18:46:46.578Z,12.30
2017-10-08T18:49:19.536Z,12.20
2017-10-08T18:51:50.406Z,12.20
2017-10-08T18:54:22.656Z,12.10
2017-10-08T18:56:53.418Z,12.10
2017-10-08T18:59:24.391Z,12.10
2017-10-08T19:01:55.549Z,12.00
2017-10-08T19:04:26.312Z,12.00
2017-10-08T19:06:56.883Z,11.90
2017-10-08T19:09:28.135Z,11.80
2017-10-08T19:11:59.392Z,11.80
2017-10-08T19:14:30.329Z,11.80
2017-10-08T19:17:01.750Z,11.70
2017-10-08T19:19:32.789Z,11.60
2017-10-08T19:22:03.208Z,11.60
2017-10-08T19:24:34.087Z,11.50
2017-10-08T19:27:05.679Z,11.50
2017-10-08T19:29:37.005Z,11.40
2017-10-08T19:32:08.760Z,11.30
2017-10-08T19:34:39.691Z,11.40
2017-10-08T19:37:10.967Z,11.30
2017-10-08T19:39:42.343Z,11.30
2017-10-08T19:42:13.100Z,11.20
2017-10-08T19:44:45.169Z,11.20
2017-10-08T19:47:15.849Z,11.20
2017-10-08T19:49:46.948Z,11.20
2017-10-08T19:52:18.027Z,11.20
2017-10-08T19:54:49.427Z,11.20
2017-10-08T19:57:22.149Z,11.10
2017-10-08T19:59:53.552Z,11.10
2017-10-08T20:02:25.118Z,11.10
2017-10-08T20:04:56.916Z,11.10
2017-10-08T20:07:27.708Z,11.10
2017-10-08T20:09:59.308Z,11.10
2017-10-08T20:12:30.550Z,11.10
2017-10-08T20:15:01.881Z,11.00
2017-10-08T20:17:32.731Z,11.00
2017-10-08T20:20:03.826Z,11.00
2017-10-08T20:22:35.155Z,11.00
2017-10-08T20:25:06.313Z,11.00
2017-10-08T20:27:37.706Z,10.90
2017-10-08T20:30:09.082Z,11.00
2017-10-08T20:32:40.486Z,11.00
2017-10-08T20:35:11.859Z,10.90
2017-10-08T20:37:43.527Z,10.90
2017-10-08T20:40:14.692Z,10.90
2017-10-08T20:42:46.637Z,10.90
2017-10-08T20:45:17.230Z,11.00
2017-10-08T20:47:48.309Z,11.00
2017-10-08T20:50:18.967Z,11.00
2017-10-08T20:52:49.753Z,11.10
2017-10-08T20:55:20.738Z,11.10
2017-10-08T20:57:51.894Z,11.10
2017-10-08T21:00:22.889Z,11.20
2017-10-08T21:02:53.674Z,11.20
2017-10-08T21:05:24.996Z,11.30
2017-10-08T21:07:55.477Z,11.30
2017-10-08T21:10:26.248Z,11.30
2017-10-08T21:12:57.639Z,11.30
2017-10-08T21:15:28.292Z,11.30
2017-10-08T21:17:59.597Z,11.40
2017-10-08T21:20:31.940Z,11.40
2017-10-08T21:23:03.215Z,11.40
2017-10-08T21:25:34.459Z,11.50
2017-10-08T21:28:05.259Z,11.50
2017-10-08T21:30:36.398Z,11.50
2017-10-08T21:33:07.530Z,11.50
2017-10-08T21:35:38.593Z,11.50
2017-10-08T21:38:09.608Z,11.50
2017-10-08T21:40:41.082Z,11.50
2017-10-08T21:43:11.922Z,11.50
2017-10-08T21:45:44.327Z,11.50
2017-10-08T21:48:15.859Z,11.50
2017-10-08T21:50:47.967Z,11.50
2017-10-08T21:53:19.496Z,11.60
2017-10-08T21:55:50.440Z,11.60
2017-10-08T21:58:21.794Z,11.60
2017-10-08T22:00:53.250Z,11.60
2017-10-08T22:03:24.370Z,11.60
2017-10-08T22:05:55.787Z,11.60
2017-10-08T22:08:27.444Z,11.60
2017-10-08T22:10:58.746Z,11.60
2017-10-08T22:13:29.765Z,11.60
2017-10-08T22:16:00.959Z,11.60
2017-10-08T22:18:31.965Z,11.60
2017-10-08T22:21:03.834Z,11.70
2017-10-08T22:23:35.132Z,11.60
2017-10-08T22:26:05.666Z,11.60
2017-10-08T22:28:38.491Z,11.60
2017-10-08T22:31:09.663Z,11.50
2017-10-08T22:33:40.826Z,11.50
2017-10-08T22:36:12.017Z,11.50
2017-10-08T22:38:43.002Z,11.60
2017-10-08T22:41:14.391Z,11.50
2017-10-08T22:43:45.482Z,11.50
2017-10-08T22:46:16.485Z,11.50
2017-10-08T22:48:47.846Z,11.40
2017-10-08T22:51:18.550Z,11.40
2017-10-08T22:53:50.367Z,11.40
2017-10-08T22:56:21.541Z,11.40
2017-10-08T22:58:52.452Z,11.40
2017-10-08T23:01:23.086Z,11.40
2017-10-08T23:03:54.204Z,11.40
2017-10-08T23:06:25.942Z,11.40
2017-10-08T23:08:57.062Z,11.40
2017-10-08T23:11:28.241Z,11.30
2017-10-08T23:13:58.665Z,11.30
2017-10-08T23:16:29.130Z,11.30
2017-10-08T23:18:59.772Z,11.30
2017-10-08T23:21:30.542Z,11.30
2017-10-08T23:24:01.023Z,11.30
2017-10-08T23:26:31.909Z,11.30
2017-10-08T23:29:02.781Z,11.30
2017-10-08T23:31:33.306Z,11.30
2017-10-08T23:34:04.906Z,11.30
2017-10-08T23:36:36.772Z,11.30
2017-10-08T23:39:08.396Z,11.40
2017-10-08T23:41:44.992Z,11.30
2017-10-08T23:44:15.830Z,11.40
2017-10-08T23:46:47.487Z,11.40
2017-10-08T23:49:18.201Z,11.40
2017-10-08T23:51:48.778Z,11.40
2017-10-08T23:54:19.690Z,11.30
2017-10-08T23:56:50.867Z,11.40
2017-10-08T23:59:22.887Z,11.40
